sensor_id;sensor_type;location;lat;lon;timestamp;P1;durP1;ratioP1;P2;durP2;ratioP2
72771;SDS011;60894;42.544;1.516;2022-10-17T00:00:42;10.03;;;3.57;;
72771;SDS011;60894;42.544;1.516;2022-10-17T00:03:09;9.13;;;3.83;;
72771;SDS011;60894;42.544;1.516;2022-10-17T00:05:38;10.77;;;3.83;;
72771;SDS011;60894;42.544;1.516;2022-10-17T00:08:06;10.15;;;3.42;;
72771;SDS011;60894;42.544;1.516;2022-10-17T00:10:34;10.88;;;3.72;;
72771;SDS011;60894;42.544;1.516;2022-10-17T00:13:01;10.47;;;3.30;;
72771;SDS011;60894;42.544;1.516;2022-10-17T00:15:28;7.38;;;3.20;;
72771;SDS011;60894;42.544;1.516;2022-10-17T00:17:55;8.65;;;3.53;;
72771;SDS011;60894;42.544;1.516;2022-10-17T00:20:22;10.50;;;3.83;;
72771;SDS011;60894;42.544;1.516;2022-10-17T00:22:49;9.95;;;3.80;;
72771;SDS011;60894;42.544;1.516;2022-10-17T00:25:18;13.70;;;4.20;;
72771;SDS011;60894;42.544;1.516;2022-10-17T00:27:45;11.20;;;3.78;;
72771;SDS011;60894;42.544;1.516;2022-10-17T00:30:13;9.57;;;3.53;;
72771;SDS011;60894;42.544;1.516;2022-10-17T00:32:43;12.77;;;3.75;;
72771;SDS011;60894;42.544;1.516;2022-10-17T00:35:10;15.63;;;4.50;;
72771;SDS011;60894;42.544;1.516;2022-10-17T00:37:37;11.10;;;3.90;;
72771;SDS011;60894;42.544;1.516;2022-10-17T00:40:04;14.30;;;3.70;;
72771;SDS011;60894;42.544;1.516;2022-10-17T00:42:34;9.27;;;3.60;;
72771;SDS011;60894;42.544;1.516;2022-10-17T00:47:46;10.80;;;3.67;;
72771;SDS011;60894;42.544;1.516;2022-10-17T00:50:17;8.63;;;3.20;;
72771;SDS011;60894;42.544;1.516;2022-10-17T00:52:44;12.07;;;3.83;;
72771;SDS011;60894;42.544;1.516;2022-10-17T00:55:14;10.15;;;3.50;;
72771;SDS011;60894;42.544;1.516;2022-10-17T00:57:45;11.90;;;3.40;;
72771;SDS011;60894;42.544;1.516;2022-10-17T01:00:13;11.32;;;3.80;;
72771;SDS011;60894;42.544;1.516;2022-10-17T01:02:41;10.83;;;3.67;;
72771;SDS011;60894;42.544;1.516;2022-10-17T01:05:08;11.30;;;3.67;;
72771;SDS011;60894;42.544;1.516;2022-10-17T01:07:37;10.52;;;3.50;;
72771;SDS011;60894;42.544;1.516;2022-10-17T01:10:05;8.75;;;3.10;;
72771;SDS011;60894;42.544;1.516;2022-10-17T01:12:37;9.32;;;3.25;;
72771;SDS011;60894;42.544;1.516;2022-10-17T01:15:13;8.40;;;3.10;;
72771;SDS011;60894;42.544;1.516;2022-10-17T01:17:52;10.55;;;3.25;;
72771;SDS011;60894;42.544;1.516;2022-10-17T01:20:40;16.27;;;3.60;;
72771;SDS011;60894;42.544;1.516;2022-10-17T01:23:36;8.85;;;3.28;;
72771;SDS011;60894;42.544;1.516;2022-10-17T01:26:24;11.55;;;3.25;;
72771;SDS011;60894;42.544;1.516;2022-10-17T01:29:17;8.57;;;3.20;;
72771;SDS011;60894;42.544;1.516;2022-10-17T01:32:07;9.15;;;3.30;;
72771;SDS011;60894;42.544;1.516;2022-10-17T01:34:41;7.95;;;3.15;;
72771;SDS011;60894;42.544;1.516;2022-10-17T01:37:15;11.95;;;3.75;;
72771;SDS011;60894;42.544;1.516;2022-10-17T01:39:48;10.55;;;3.17;;
72771;SDS011;60894;42.544;1.516;2022-10-17T01:42:18;17.63;;;7.23;;
72771;SDS011;60894;42.544;1.516;2022-10-17T01:44:51;23.55;;;7.03;;
72771;SDS011;60894;42.544;1.516;2022-10-17T01:47:23;16.60;;;5.15;;
72771;SDS011;60894;42.544;1.516;2022-10-17T01:49:54;10.48;;;3.15;;
72771;SDS011;60894;42.544;1.516;2022-10-17T01:52:26;10.43;;;3.30;;
72771;SDS011;60894;42.544;1.516;2022-10-17T01:54:57;8.83;;;3.20;;
72771;SDS011;60894;42.544;1.516;2022-10-17T01:57:41;9.52;;;3.50;;
72771;SDS011;60894;42.544;1.516;2022-10-17T02:00:12;9.82;;;3.22;;
72771;SDS011;60894;42.544;1.516;2022-10-17T02:02:45;9.48;;;3.10;;
72771;SDS011;60894;42.544;1.516;2022-10-17T02:05:15;10.02;;;3.17;;
72771;SDS011;60894;42.544;1.516;2022-10-17T02:07:44;9.70;;;3.30;;
72771;SDS011;60894;42.544;1.516;2022-10-17T02:10:12;9.15;;;3.38;;
72771;SDS011;60894;42.544;1.516;2022-10-17T02:12:58;11.70;;;3.70;;
72771;SDS011;60894;42.544;1.516;2022-10-17T02:15:38;10.45;;;3.35;;
72771;SDS011;60894;42.544;1.516;2022-10-17T02:18:17;11.30;;;3.95;;
72771;SDS011;60894;42.544;1.516;2022-10-17T02:20:51;13.27;;;2.93;;
72771;SDS011;60894;42.544;1.516;2022-10-17T02:23:24;9.90;;;3.13;;
72771;SDS011;60894;42.544;1.516;2022-10-17T02:25:58;12.50;;;3.25;;
72771;SDS011;60894;42.544;1.516;2022-10-17T02:28:32;8.32;;;3.25;;
72771;SDS011;60894;42.544;1.516;2022-10-17T02:31:07;12.15;;;3.05;;
72771;SDS011;60894;42.544;1.516;2022-10-17T02:33:42;8.73;;;3.93;;
72771;SDS011;60894;42.544;1.516;2022-10-17T02:36:13;11.23;;;4.25;;
72771;SDS011;60894;42.544;1.516;2022-10-17T02:38:43;10.02;;;4.00;;
72771;SDS011;60894;42.544;1.516;2022-10-17T02:41:12;12.65;;;3.60;;
72771;SDS011;60894;42.544;1.516;2022-10-17T02:43:42;9.90;;;3.30;;
72771;SDS011;60894;42.544;1.516;2022-10-17T02:46:11;10.60;;;3.10;;
72771;SDS011;60894;42.544;1.516;2022-10-17T02:48:47;9.52;;;3.40;;
72771;SDS011;60894;42.544;1.516;2022-10-17T02:51:18;10.27;;;3.30;;
72771;SDS011;60894;42.544;1.516;2022-10-17T02:53:51;10.38;;;3.08;;
72771;SDS011;60894;42.544;1.516;2022-10-17T02:56:25;8.07;;;3.00;;
72771;SDS011;60894;42.544;1.516;2022-10-17T02:58:56;8.67;;;3.03;;
72771;SDS011;60894;42.544;1.516;2022-10-17T03:01:25;11.25;;;2.95;;
72771;SDS011;60894;42.544;1.516;2022-10-17T03:04:04;10.07;;;3.00;;
72771;SDS011;60894;42.544;1.516;2022-10-17T03:06:32;10.55;;;3.45;;
72771;SDS011;60894;42.544;1.516;2022-10-17T03:08:59;9.75;;;3.20;;
72771;SDS011;60894;42.544;1.516;2022-10-17T03:11:26;10.27;;;2.90;;
72771;SDS011;60894;42.544;1.516;2022-10-17T03:13:53;9.52;;;3.10;;
72771;SDS011;60894;42.544;1.516;2022-10-17T03:16:19;13.00;;;3.63;;
72771;SDS011;60894;42.544;1.516;2022-10-17T03:18:46;11.55;;;3.30;;
72771;SDS011;60894;42.544;1.516;2022-10-17T03:21:14;8.25;;;2.70;;
72771;SDS011;60894;42.544;1.516;2022-10-17T03:23:41;12.17;;;3.53;;
72771;SDS011;60894;42.544;1.516;2022-10-17T03:26:08;12.80;;;3.28;;
72771;SDS011;60894;42.544;1.516;2022-10-17T03:28:35;8.70;;;3.00;;
72771;SDS011;60894;42.544;1.516;2022-10-17T03:31:05;12.88;;;3.25;;
72771;SDS011;60894;42.544;1.516;2022-10-17T03:33:34;8.25;;;3.40;;
72771;SDS011;60894;42.544;1.516;2022-10-17T03:36:04;8.90;;;3.10;;
72771;SDS011;60894;42.544;1.516;2022-10-17T03:38:34;8.93;;;2.88;;
72771;SDS011;60894;42.544;1.516;2022-10-17T03:41:01;9.35;;;3.53;;
72771;SDS011;60894;42.544;1.516;2022-10-17T03:43:28;13.13;;;3.30;;
72771;SDS011;60894;42.544;1.516;2022-10-17T03:45:55;10.80;;;3.20;;
72771;SDS011;60894;42.544;1.516;2022-10-17T03:48:23;10.23;;;3.40;;
72771;SDS011;60894;42.544;1.516;2022-10-17T03:50:50;14.48;;;4.13;;
72771;SDS011;60894;42.544;1.516;2022-10-17T03:53:17;10.15;;;3.50;;
72771;SDS011;60894;42.544;1.516;2022-10-17T03:55:46;10.38;;;3.10;;
72771;SDS011;60894;42.544;1.516;2022-10-17T03:58:13;9.45;;;3.00;;
72771;SDS011;60894;42.544;1.516;2022-10-17T04:00:39;10.43;;;3.90;;
72771;SDS011;60894;42.544;1.516;2022-10-17T04:03:06;10.93;;;3.67;;
72771;SDS011;60894;42.544;1.516;2022-10-17T04:05:33;11.10;;;2.80;;
72771;SDS011;60894;42.544;1.516;2022-10-17T04:08:00;7.70;;;2.75;;
72771;SDS011;60894;42.544;1.516;2022-10-17T04:10:27;10.05;;;2.90;;
72771;SDS011;60894;42.544;1.516;2022-10-17T04:12:56;10.40;;;3.13;;
72771;SDS011;60894;42.544;1.516;2022-10-17T04:15:23;9.68;;;2.90;;
72771;SDS011;60894;42.544;1.516;2022-10-17T04:17:50;9.35;;;3.03;;
72771;SDS011;60894;42.544;1.516;2022-10-17T04:20:17;10.52;;;3.40;;
72771;SDS011;60894;42.544;1.516;2022-10-17T04:22:44;9.80;;;2.78;;
72771;SDS011;60894;42.544;1.516;2022-10-17T04:25:11;8.90;;;3.20;;
72771;SDS011;60894;42.544;1.516;2022-10-17T04:27:38;9.82;;;2.92;;
72771;SDS011;60894;42.544;1.516;2022-10-17T04:30:06;10.80;;;3.28;;
72771;SDS011;60894;42.544;1.516;2022-10-17T04:32:35;7.47;;;2.83;;
72771;SDS011;60894;42.544;1.516;2022-10-17T04:35:03;9.98;;;2.90;;
72771;SDS011;60894;42.544;1.516;2022-10-17T04:37:31;9.37;;;2.97;;
72771;SDS011;60894;42.544;1.516;2022-10-17T04:39:57;9.38;;;3.05;;
72771;SDS011;60894;42.544;1.516;2022-10-17T04:42:24;11.77;;;3.13;;
72771;SDS011;60894;42.544;1.516;2022-10-17T04:44:51;11.23;;;3.30;;
72771;SDS011;60894;42.544;1.516;2022-10-17T04:47:19;10.13;;;3.10;;
72771;SDS011;60894;42.544;1.516;2022-10-17T04:49:46;10.83;;;4.03;;
72771;SDS011;60894;42.544;1.516;2022-10-17T04:52:13;9.40;;;3.53;;
72771;SDS011;60894;42.544;1.516;2022-10-17T04:54:40;10.20;;;2.90;;
72771;SDS011;60894;42.544;1.516;2022-10-17T04:57:07;11.65;;;3.42;;
72771;SDS011;60894;42.544;1.516;2022-10-17T04:59:34;8.60;;;3.20;;
72771;SDS011;60894;42.544;1.516;2022-10-17T05:02:01;10.23;;;3.30;;
72771;SDS011;60894;42.544;1.516;2022-10-17T05:04:29;9.50;;;3.45;;
72771;SDS011;60894;42.544;1.516;2022-10-17T05:06:56;11.23;;;3.42;;
72771;SDS011;60894;42.544;1.516;2022-10-17T05:09:23;6.90;;;3.10;;
72771;SDS011;60894;42.544;1.516;2022-10-17T05:11:50;13.35;;;3.92;;
72771;SDS011;60894;42.544;1.516;2022-10-17T05:14:17;10.53;;;3.63;;
72771;SDS011;60894;42.544;1.516;2022-10-17T05:16:44;10.27;;;3.58;;
72771;SDS011;60894;42.544;1.516;2022-10-17T05:19:11;12.35;;;3.17;;
72771;SDS011;60894;42.544;1.516;2022-10-17T05:21:39;9.05;;;3.20;;
72771;SDS011;60894;42.544;1.516;2022-10-17T05:24:07;11.60;;;3.80;;
72771;SDS011;60894;42.544;1.516;2022-10-17T05:26:35;10.57;;;3.20;;
72771;SDS011;60894;42.544;1.516;2022-10-17T05:29:02;10.07;;;2.97;;
72771;SDS011;60894;42.544;1.516;2022-10-17T05:31:29;13.45;;;4.38;;
72771;SDS011;60894;42.544;1.516;2022-10-17T05:33:59;10.82;;;3.38;;
72771;SDS011;60894;42.544;1.516;2022-10-17T05:36:26;9.75;;;4.45;;
72771;SDS011;60894;42.544;1.516;2022-10-17T05:38:55;8.77;;;3.53;;
72771;SDS011;60894;42.544;1.516;2022-10-17T05:41:22;10.73;;;3.80;;
72771;SDS011;60894;42.544;1.516;2022-10-17T05:43:49;13.65;;;3.58;;
72771;SDS011;60894;42.544;1.516;2022-10-17T05:46:16;15.55;;;3.80;;
72771;SDS011;60894;42.544;1.516;2022-10-17T05:48:43;10.63;;;3.90;;
72771;SDS011;60894;42.544;1.516;2022-10-17T05:51:10;10.47;;;4.60;;
72771;SDS011;60894;42.544;1.516;2022-10-17T05:53:38;9.70;;;3.70;;
72771;SDS011;60894;42.544;1.516;2022-10-17T05:56:08;8.88;;;3.70;;
72771;SDS011;60894;42.544;1.516;2022-10-17T05:58:38;14.77;;;4.55;;
72771;SDS011;60894;42.544;1.516;2022-10-17T06:01:06;8.13;;;3.25;;
72771;SDS011;60894;42.544;1.516;2022-10-17T06:03:33;8.10;;;3.53;;
72771;SDS011;60894;42.544;1.516;2022-10-17T06:06:04;10.32;;;3.80;;
72771;SDS011;60894;42.544;1.516;2022-10-17T06:08:32;10.55;;;3.40;;
72771;SDS011;60894;42.544;1.516;2022-10-17T06:10:59;9.23;;;3.70;;
72771;SDS011;60894;42.544;1.516;2022-10-17T06:13:28;10.23;;;4.15;;
72771;SDS011;60894;42.544;1.516;2022-10-17T06:15:55;9.07;;;4.47;;
72771;SDS011;60894;42.544;1.516;2022-10-17T06:18:22;11.48;;;3.90;;
72771;SDS011;60894;42.544;1.516;2022-10-17T06:20:49;13.20;;;4.72;;
72771;SDS011;60894;42.544;1.516;2022-10-17T06:23:16;11.10;;;4.10;;
72771;SDS011;60894;42.544;1.516;2022-10-17T06:25:43;9.95;;;4.03;;
72771;SDS011;60894;42.544;1.516;2022-10-17T06:28:10;8.33;;;3.37;;
72771;SDS011;60894;42.544;1.516;2022-10-17T06:30:38;14.43;;;4.18;;
72771;SDS011;60894;42.544;1.516;2022-10-17T06:33:06;12.32;;;4.10;;
72771;SDS011;60894;42.544;1.516;2022-10-17T06:35:32;14.20;;;4.80;;
72771;SDS011;60894;42.544;1.516;2022-10-17T06:37:59;13.20;;;4.10;;
72771;SDS011;60894;42.544;1.516;2022-10-17T06:40:26;11.60;;;4.20;;
72771;SDS011;60894;42.544;1.516;2022-10-17T06:42:55;13.05;;;4.43;;
72771;SDS011;60894;42.544;1.516;2022-10-17T06:45:22;11.77;;;4.70;;
72771;SDS011;60894;42.544;1.516;2022-10-17T06:47:51;14.77;;;4.40;;
72771;SDS011;60894;42.544;1.516;2022-10-17T06:50:18;12.00;;;4.30;;
72771;SDS011;60894;42.544;1.516;2022-10-17T06:52:45;13.77;;;4.47;;
72771;SDS011;60894;42.544;1.516;2022-10-17T06:55:15;10.60;;;4.03;;
72771;SDS011;60894;42.544;1.516;2022-10-17T06:57:42;15.45;;;4.65;;
72771;SDS011;60894;42.544;1.516;2022-10-17T07:00:10;14.35;;;5.00;;
72771;SDS011;60894;42.544;1.516;2022-10-17T07:02:37;12.45;;;4.82;;
72771;SDS011;60894;42.544;1.516;2022-10-17T07:05:06;13.37;;;4.77;;
72771;SDS011;60894;42.544;1.516;2022-10-17T07:07:33;11.07;;;4.53;;
72771;SDS011;60894;42.544;1.516;2022-10-17T07:10:00;13.90;;;4.70;;
72771;SDS011;60894;42.544;1.516;2022-10-17T07:12:28;14.70;;;4.70;;
72771;SDS011;60894;42.544;1.516;2022-10-17T07:14:55;16.90;;;4.70;;
72771;SDS011;60894;42.544;1.516;2022-10-17T07:17:22;14.27;;;4.77;;
72771;SDS011;60894;42.544;1.516;2022-10-17T07:19:49;15.63;;;4.97;;
72771;SDS011;60894;42.544;1.516;2022-10-17T07:22:17;12.43;;;4.20;;
72771;SDS011;60894;42.544;1.516;2022-10-17T07:24:44;13.52;;;4.70;;
72771;SDS011;60894;42.544;1.516;2022-10-17T07:27:11;13.40;;;4.30;;
72771;SDS011;60894;42.544;1.516;2022-10-17T07:29:38;12.60;;;4.53;;
72771;SDS011;60894;42.544;1.516;2022-10-17T07:32:05;12.57;;;4.57;;
72771;SDS011;60894;42.544;1.516;2022-10-17T07:34:32;15.18;;;4.95;;
72771;SDS011;60894;42.544;1.516;2022-10-17T07:37:00;14.60;;;4.35;;
72771;SDS011;60894;42.544;1.516;2022-10-17T07:39:28;13.68;;;4.85;;
72771;SDS011;60894;42.544;1.516;2022-10-17T07:41:55;14.17;;;4.43;;
72771;SDS011;60894;42.544;1.516;2022-10-17T07:44:23;13.43;;;4.95;;
72771;SDS011;60894;42.544;1.516;2022-10-17T07:46:49;14.75;;;4.90;;
72771;SDS011;60894;42.544;1.516;2022-10-17T07:49:16;13.77;;;4.63;;
72771;SDS011;60894;42.544;1.516;2022-10-17T07:51:43;13.75;;;5.03;;
72771;SDS011;60894;42.544;1.516;2022-10-17T07:54:10;13.03;;;5.07;;
72771;SDS011;60894;42.544;1.516;2022-10-17T07:56:39;13.88;;;4.80;;
72771;SDS011;60894;42.544;1.516;2022-10-17T07:59:06;13.43;;;5.32;;
72771;SDS011;60894;42.544;1.516;2022-10-17T08:01:33;12.93;;;3.97;;
72771;SDS011;60894;42.544;1.516;2022-10-17T08:04:00;12.88;;;4.55;;
72771;SDS011;60894;42.544;1.516;2022-10-17T08:06:27;11.87;;;4.80;;
72771;SDS011;60894;42.544;1.516;2022-10-17T08:08:54;14.40;;;3.75;;
72771;SDS011;60894;42.544;1.516;2022-10-17T08:11:22;11.32;;;3.63;;
72771;SDS011;60894;42.544;1.516;2022-10-17T08:13:50;12.73;;;3.83;;
72771;SDS011;60894;42.544;1.516;2022-10-17T08:16:17;10.20;;;3.80;;
72771;SDS011;60894;42.544;1.516;2022-10-17T08:18:44;15.63;;;4.30;;
72771;SDS011;60894;42.544;1.516;2022-10-17T08:21:11;13.63;;;3.20;;
72771;SDS011;60894;42.544;1.516;2022-10-17T08:23:38;11.43;;;3.90;;
72771;SDS011;60894;42.544;1.516;2022-10-17T08:26:06;9.35;;;3.63;;
72771;SDS011;60894;42.544;1.516;2022-10-17T08:28:36;12.00;;;3.63;;
72771;SDS011;60894;42.544;1.516;2022-10-17T08:31:05;11.03;;;3.07;;
72771;SDS011;60894;42.544;1.516;2022-10-17T08:33:33;11.90;;;3.47;;
72771;SDS011;60894;42.544;1.516;2022-10-17T08:36:02;11.05;;;3.30;;
72771;SDS011;60894;42.544;1.516;2022-10-17T08:38:31;9.98;;;3.38;;
72771;SDS011;60894;42.544;1.516;2022-10-17T08:41:00;11.10;;;3.17;;
72771;SDS011;60894;42.544;1.516;2022-10-17T08:43:35;10.00;;;3.30;;
72771;SDS011;60894;42.544;1.516;2022-10-17T08:46:15;14.13;;;4.20;;
72771;SDS011;60894;42.544;1.516;2022-10-17T08:48:44;11.95;;;4.13;;
72771;SDS011;60894;42.544;1.516;2022-10-17T08:51:14;14.60;;;4.47;;
72771;SDS011;60894;42.544;1.516;2022-10-17T08:53:45;16.60;;;3.38;;
72771;SDS011;60894;42.544;1.516;2022-10-17T08:56:16;15.57;;;3.67;;
72771;SDS011;60894;42.544;1.516;2022-10-17T08:58:44;12.32;;;3.42;;
72771;SDS011;60894;42.544;1.516;2022-10-17T09:01:13;10.40;;;3.05;;
72771;SDS011;60894;42.544;1.516;2022-10-17T09:03:59;14.57;;;3.63;;
72771;SDS011;60894;42.544;1.516;2022-10-17T09:06:36;12.88;;;2.92;;
72771;SDS011;60894;42.544;1.516;2022-10-17T09:09:08;11.07;;;3.50;;
72771;SDS011;60894;42.544;1.516;2022-10-17T09:11:49;10.25;;;3.25;;
72771;SDS011;60894;42.544;1.516;2022-10-17T09:14:33;10.60;;;3.63;;
72771;SDS011;60894;42.544;1.516;2022-10-17T09:17:33;10.65;;;3.85;;
72771;SDS011;60894;42.544;1.516;2022-10-17T09:20:08;11.45;;;3.00;;
72771;SDS011;60894;42.544;1.516;2022-10-17T09:22:40;15.33;;;4.43;;
72771;SDS011;60894;42.544;1.516;2022-10-17T09:25:14;12.90;;;4.10;;
72771;SDS011;60894;42.544;1.516;2022-10-17T09:27:44;10.52;;;3.78;;
72771;SDS011;60894;42.544;1.516;2022-10-17T09:33:02;9.00;;;3.30;;
72771;SDS011;60894;42.544;1.516;2022-10-17T09:35:36;8.97;;;3.10;;
72771;SDS011;60894;42.544;1.516;2022-10-17T09:38:06;9.95;;;2.30;;
72771;SDS011;60894;42.544;1.516;2022-10-17T09:40:36;10.75;;;2.47;;
72771;SDS011;60894;42.544;1.516;2022-10-17T09:43:04;15.05;;;2.30;;
72771;SDS011;60894;42.544;1.516;2022-10-17T09:45:32;16.20;;;1.90;;
72771;SDS011;60894;42.544;1.516;2022-10-17T09:48:12;9.10;;;2.00;;
72771;SDS011;60894;42.544;1.516;2022-10-17T09:50:44;13.32;;;2.10;;
72771;SDS011;60894;42.544;1.516;2022-10-17T09:53:13;10.20;;;1.92;;
72771;SDS011;60894;42.544;1.516;2022-10-17T09:55:52;7.40;;;2.00;;
72771;SDS011;60894;42.544;1.516;2022-10-17T09:58:22;11.05;;;1.95;;
72771;SDS011;60894;42.544;1.516;2022-10-17T10:00:49;9.93;;;1.97;;
72771;SDS011;60894;42.544;1.516;2022-10-17T10:03:18;9.90;;;1.90;;
72771;SDS011;60894;42.544;1.516;2022-10-17T10:06:00;8.73;;;1.60;;
72771;SDS011;60894;42.544;1.516;2022-10-17T10:08:29;10.20;;;2.20;;
72771;SDS011;60894;42.544;1.516;2022-10-17T10:10:58;10.18;;;1.95;;
72771;SDS011;60894;42.544;1.516;2022-10-17T10:13:27;12.30;;;2.17;;
72771;SDS011;60894;42.544;1.516;2022-10-17T10:15:54;8.27;;;2.00;;
72771;SDS011;60894;42.544;1.516;2022-10-17T10:18:40;11.70;;;2.58;;
72771;SDS011;60894;42.544;1.516;2022-10-17T10:21:09;6.50;;;1.42;;
72771;SDS011;60894;42.544;1.516;2022-10-17T10:23:38;13.20;;;1.90;;
72771;SDS011;60894;42.544;1.516;2022-10-17T10:26:19;11.63;;;1.87;;
72771;SDS011;60894;42.544;1.516;2022-10-17T10:28:53;9.35;;;1.98;;
72771;SDS011;60894;42.544;1.516;2022-10-17T10:31:30;7.65;;;1.77;;
72771;SDS011;60894;42.544;1.516;2022-10-17T10:34:02;10.13;;;1.60;;
72771;SDS011;60894;42.544;1.516;2022-10-17T10:39:33;12.63;;;1.60;;
72771;SDS011;60894;42.544;1.516;2022-10-17T10:42:05;8.63;;;1.40;;
72771;SDS011;60894;42.544;1.516;2022-10-17T10:44:35;11.98;;;2.28;;
72771;SDS011;60894;42.544;1.516;2022-10-17T10:47:08;9.20;;;2.05;;
72771;SDS011;60894;42.544;1.516;2022-10-17T10:49:44;11.57;;;2.00;;
72771;SDS011;60894;42.544;1.516;2022-10-17T10:52:14;10.03;;;2.10;;
72771;SDS011;60894;42.544;1.516;2022-10-17T10:54:48;8.57;;;2.13;;
72771;SDS011;60894;42.544;1.516;2022-10-17T10:57:20;14.07;;;1.70;;
72771;SDS011;60894;42.544;1.516;2022-10-17T10:59:53;12.52;;;2.10;;
72771;SDS011;60894;42.544;1.516;2022-10-17T11:02:25;7.68;;;1.80;;
72771;SDS011;60894;42.544;1.516;2022-10-17T11:04:57;10.03;;;2.03;;
72771;SDS011;60894;42.544;1.516;2022-10-17T11:07:29;7.88;;;1.70;;
72771;SDS011;60894;42.544;1.516;2022-10-17T11:10:02;10.38;;;1.73;;
72771;SDS011;60894;42.544;1.516;2022-10-17T11:12:35;11.68;;;2.22;;
72771;SDS011;60894;42.544;1.516;2022-10-17T11:15:08;11.18;;;2.03;;
72771;SDS011;60894;42.544;1.516;2022-10-17T11:17:44;21.83;;;2.20;;
72771;SDS011;60894;42.544;1.516;2022-10-17T11:20:21;9.75;;;1.90;;
72771;SDS011;60894;42.544;1.516;2022-10-17T11:22:56;11.25;;;2.30;;
72771;SDS011;60894;42.544;1.516;2022-10-17T11:25:31;7.72;;;1.83;;
72771;SDS011;60894;42.544;1.516;2022-10-17T11:28:00;7.32;;;2.08;;
72771;SDS011;60894;42.544;1.516;2022-10-17T11:30:39;14.10;;;2.60;;
72771;SDS011;60894;42.544;1.516;2022-10-17T11:33:11;10.80;;;2.10;;
72771;SDS011;60894;42.544;1.516;2022-10-17T11:35:45;10.23;;;2.42;;
72771;SDS011;60894;42.544;1.516;2022-10-17T11:38:17;9.15;;;2.45;;
72771;SDS011;60894;42.544;1.516;2022-10-17T11:40:48;13.73;;;2.75;;
72771;SDS011;60894;42.544;1.516;2022-10-17T11:43:17;11.37;;;2.47;;
72771;SDS011;60894;42.544;1.516;2022-10-17T11:45:51;9.15;;;2.50;;
72771;SDS011;60894;42.544;1.516;2022-10-17T11:48:23;10.35;;;2.35;;
72771;SDS011;60894;42.544;1.516;2022-10-17T11:50:56;13.38;;;2.50;;
72771;SDS011;60894;42.544;1.516;2022-10-17T11:53:29;11.85;;;3.00;;
72771;SDS011;60894;42.544;1.516;2022-10-17T11:56:03;11.23;;;3.07;;
72771;SDS011;60894;42.544;1.516;2022-10-17T11:58:33;9.40;;;2.38;;
72771;SDS011;60894;42.544;1.516;2022-10-17T12:01:11;11.70;;;2.30;;
72771;SDS011;60894;42.544;1.516;2022-10-17T12:03:48;17.55;;;4.32;;
72771;SDS011;60894;42.544;1.516;2022-10-17T12:06:31;10.70;;;3.47;;
72771;SDS011;60894;42.544;1.516;2022-10-17T12:09:06;11.10;;;3.20;;
72771;SDS011;60894;42.544;1.516;2022-10-17T12:11:44;10.60;;;3.20;;
72771;SDS011;60894;42.544;1.516;2022-10-17T12:14:34;18.40;;;3.30;;
72771;SDS011;60894;42.544;1.516;2022-10-17T12:17:08;11.85;;;2.97;;
72771;SDS011;60894;42.544;1.516;2022-10-17T12:19:48;9.10;;;1.92;;
72771;SDS011;60894;42.544;1.516;2022-10-17T12:22:21;6.40;;;1.73;;
72771;SDS011;60894;42.544;1.516;2022-10-17T12:24:56;8.02;;;2.05;;
72771;SDS011;60894;42.544;1.516;2022-10-17T12:30:19;8.38;;;2.67;;
72771;SDS011;60894;42.544;1.516;2022-10-17T12:33:01;11.13;;;2.00;;
72771;SDS011;60894;42.544;1.516;2022-10-17T12:35:32;9.83;;;2.10;;
72771;SDS011;60894;42.544;1.516;2022-10-17T12:40:58;11.38;;;2.30;;
72771;SDS011;60894;42.544;1.516;2022-10-17T12:49:20;13.47;;;2.77;;
72771;SDS011;60894;42.544;1.516;2022-10-17T12:52:04;10.63;;;3.05;;
72771;SDS011;60894;42.544;1.516;2022-10-17T12:54:55;13.23;;;2.42;;
72771;SDS011;60894;42.544;1.516;2022-10-17T12:57:33;8.38;;;2.00;;
72771;SDS011;60894;42.544;1.516;2022-10-17T13:00:12;9.80;;;2.30;;
72771;SDS011;60894;42.544;1.516;2022-10-17T13:02:42;13.03;;;2.40;;
72771;SDS011;60894;42.544;1.516;2022-10-17T13:05:12;9.57;;;2.70;;
72771;SDS011;60894;42.544;1.516;2022-10-17T13:07:44;11.27;;;2.45;;
72771;SDS011;60894;42.544;1.516;2022-10-17T13:10:21;14.23;;;2.38;;
72771;SDS011;60894;42.544;1.516;2022-10-17T13:12:50;10.55;;;2.05;;
72771;SDS011;60894;42.544;1.516;2022-10-17T13:15:22;12.10;;;2.50;;
72771;SDS011;60894;42.544;1.516;2022-10-17T13:17:56;8.85;;;2.15;;
72771;SDS011;60894;42.544;1.516;2022-10-17T13:20:24;16.90;;;2.78;;
72771;SDS011;60894;42.544;1.516;2022-10-17T13:22:53;10.07;;;2.47;;
72771;SDS011;60894;42.544;1.516;2022-10-17T13:25:23;6.47;;;1.98;;
72771;SDS011;60894;42.544;1.516;2022-10-17T13:28:01;12.67;;;2.23;;
72771;SDS011;60894;42.544;1.516;2022-10-17T13:30:30;8.63;;;1.67;;
72771;SDS011;60894;42.544;1.516;2022-10-17T13:33:00;9.63;;;1.75;;
72771;SDS011;60894;42.544;1.516;2022-10-17T13:35:28;10.52;;;2.10;;
72771;SDS011;60894;42.544;1.516;2022-10-17T13:37:56;12.95;;;1.88;;
72771;SDS011;60894;42.544;1.516;2022-10-17T13:40:29;6.50;;;1.83;;
72771;SDS011;60894;42.544;1.516;2022-10-17T13:42:57;9.07;;;1.58;;
72771;SDS011;60894;42.544;1.516;2022-10-17T13:45:27;10.38;;;1.70;;
72771;SDS011;60894;42.544;1.516;2022-10-17T13:47:59;9.63;;;1.40;;
72771;SDS011;60894;42.544;1.516;2022-10-17T13:50:30;14.52;;;2.03;;
72771;SDS011;60894;42.544;1.516;2022-10-17T13:53:06;11.87;;;1.90;;
72771;SDS011;60894;42.544;1.516;2022-10-17T13:55:50;8.68;;;2.10;;
72771;SDS011;60894;42.544;1.516;2022-10-17T13:58:19;7.85;;;1.55;;
72771;SDS011;60894;42.544;1.516;2022-10-17T14:00:46;9.60;;;1.70;;
72771;SDS011;60894;42.544;1.516;2022-10-17T14:03:14;11.43;;;1.90;;
72771;SDS011;60894;42.544;1.516;2022-10-17T14:05:58;10.13;;;1.70;;
72771;SDS011;60894;42.544;1.516;2022-10-17T14:08:34;7.93;;;1.60;;
72771;SDS011;60894;42.544;1.516;2022-10-17T14:11:07;10.40;;;2.03;;
72771;SDS011;60894;42.544;1.516;2022-10-17T14:13:39;5.80;;;1.48;;
72771;SDS011;60894;42.544;1.516;2022-10-17T14:16:08;9.80;;;2.13;;
72771;SDS011;60894;42.544;1.516;2022-10-17T14:18:36;9.13;;;1.53;;
72771;SDS011;60894;42.544;1.516;2022-10-17T14:21:04;9.80;;;2.17;;
72771;SDS011;60894;42.544;1.516;2022-10-17T14:23:33;9.90;;;2.20;;
72771;SDS011;60894;42.544;1.516;2022-10-17T14:26:07;9.57;;;1.83;;
72771;SDS011;60894;42.544;1.516;2022-10-17T14:28:37;7.75;;;1.60;;
72771;SDS011;60894;42.544;1.516;2022-10-17T14:31:08;11.73;;;1.70;;
72771;SDS011;60894;42.544;1.516;2022-10-17T14:33:41;10.88;;;1.77;;
72771;SDS011;60894;42.544;1.516;2022-10-17T14:36:10;13.55;;;1.80;;
72771;SDS011;60894;42.544;1.516;2022-10-17T14:38:37;10.90;;;2.03;;
72771;SDS011;60894;42.544;1.516;2022-10-17T14:41:05;11.60;;;3.22;;
72771;SDS011;60894;42.544;1.516;2022-10-17T14:43:39;11.17;;;1.90;;
72771;SDS011;60894;42.544;1.516;2022-10-17T14:46:06;12.65;;;1.95;;
72771;SDS011;60894;42.544;1.516;2022-10-17T14:48:40;10.48;;;1.80;;
72771;SDS011;60894;42.544;1.516;2022-10-17T14:51:08;11.52;;;1.80;;
72771;SDS011;60894;42.544;1.516;2022-10-17T14:53:36;11.32;;;1.60;;
72771;SDS011;60894;42.544;1.516;2022-10-17T14:56:04;8.03;;;1.60;;
72771;SDS011;60894;42.544;1.516;2022-10-17T14:58:48;10.68;;;1.90;;
72771;SDS011;60894;42.544;1.516;2022-10-17T15:01:16;6.93;;;1.45;;
72771;SDS011;60894;42.544;1.516;2022-10-17T15:03:43;10.18;;;1.83;;
72771;SDS011;60894;42.544;1.516;2022-10-17T15:06:14;12.35;;;2.00;;
72771;SDS011;60894;42.544;1.516;2022-10-17T15:08:43;12.70;;;2.10;;
72771;SDS011;60894;42.544;1.516;2022-10-17T15:11:10;11.27;;;1.90;;
72771;SDS011;60894;42.544;1.516;2022-10-17T15:13:39;9.45;;;1.80;;
72771;SDS011;60894;42.544;1.516;2022-10-17T15:16:09;7.50;;;1.67;;
72771;SDS011;60894;42.544;1.516;2022-10-17T15:18:40;10.05;;;2.15;;